Time;durP1;ratioP1;P1;durP2;ratioP2;P2;SDS_P1;SDS_P2;PMS_P1;PMS_P2;Temp;Humidity;BMP_temperature;BMP_pressure;BME280_temperature;BME280_humidity;BME280_pressure;Samples;Min_cycle;Max_cycle;Signal;HPM_P1;HPM_P2
2021/06/29 00:03:03;;;;;;;5.10;2.53;;;18.80;80.10;;;;;;6213939;23;20020;-82
2021/06/29 00:13:37;;;;;;;4.35;2.70;;;18.70;80.50;;;;;;6183404;23;20341;-83
2021/06/29 00:20:34;;;;;;;5.35;3.35;;;18.70;80.60;;;;;;6010516;23;20024;-82
2021/06/29 00:23:13;;;;;;;5.43;3.30;;;18.80;80.70;;;;;;6008959;23;20026;-83
2021/06/29 00:25:47;;;;;;;5.47;3.45;;;18.70;80.60;;;;;;5986996;23;20127;-83
2021/06/29 00:28:16;;;;;;;11.82;3.25;;;18.80;80.60;;;;;;5986165;23;20102;-84
2021/06/29 00:30:43;;;;;;;6.53;3.20;;;18.80;80.60;;;;;;6008931;23;20055;-83
2021/06/29 00:33:15;;;;;;;7.88;3.22;;;18.80;80.50;;;;;;6009230;23;20503;-82
2021/06/29 00:35:45;;;;;;;5.95;3.00;;;18.80;80.50;;;;;;6023623;23;20029;-83
2021/06/29 00:38:12;;;;;;;4.35;2.70;;;18.80;80.40;;;;;;6094303;23;20461;-83
2021/06/29 00:40:39;;;;;;;6.53;3.67;;;18.80;80.40;;;;;;6094861;23;20466;-82
2021/06/29 00:43:06;;;;;;;7.13;3.42;;;18.80;80.30;;;;;;6094613;23;20073;-82
2021/06/29 00:45:33;;;;;;;6.28;3.47;;;18.90;80.30;;;;;;6094936;23;20375;-83
2021/06/29 00:48:00;;;;;;;5.88;3.80;;;18.90;80.30;;;;;;6094691;23;20019;-83
2021/06/29 00:50:27;;;;;;;8.77;3.80;;;18.80;80.20;;;;;;6136004;23;20451;-82
2021/06/29 00:52:55;;;;;;;8.55;3.83;;;18.90;80.20;;;;;;6188602;23;20044;-83
2021/06/29 00:55:22;;;;;;;8.55;3.97;;;18.90;80.20;;;;;;6188412;23;20029;-82
2021/06/29 00:57:51;;;;;;;6.10;3.55;;;18.90;80.30;;;;;;6269882;22;20061;-82
2021/06/29 01:00:19;;;;;;;6.85;4.28;;;18.90;80.20;;;;;;6295892;22;20414;-83
2021/06/29 01:02:46;;;;;;;5.63;3.80;;;18.90;80.30;;;;;;6306024;22;20106;-84
2021/06/29 01:05:13;;;;;;;7.78;3.88;;;18.80;80.20;;;;;;6307937;22;20038;-83
2021/06/29 01:07:41;;;;;;;7.85;4.47;;;18.80;80.20;;;;;;6300249;22;20023;-83
2021/06/29 01:10:09;;;;;;;9.23;3.90;;;18.80;80.20;;;;;;6306292;22;20015;-83
2021/06/29 01:12:37;;;;;;;12.82;4.57;;;18.80;80.20;;;;;;6306174;22;20015;-83
2021/06/29 01:15:05;;;;;;;8.70;4.82;;;18.80;80.30;;;;;;6306583;22;20022;-83
2021/06/29 01:17:33;;;;;;;10.80;4.88;;;18.80;80.30;;;;;;6299072;22;20458;-83
2021/06/29 01:20:14;;;;;;;16.42;4.72;;;18.80;80.40;;;;;;6307712;22;20015;-83
2021/06/29 01:22:42;;;;;;;7.07;4.20;;;18.70;80.40;;;;;;6307459;22;20019;-83
2021/06/29 01:25:10;;;;;;;7.18;4.13;;;18.70;80.40;;;;;;6293596;22;20047;-83
2021/06/29 01:27:49;;;;;;;7.85;4.32;;;18.60;80.50;;;;;;6306135;22;20098;-84
2021/06/29 01:32:47;;;;;;;6.18;4.25;;;18.60;80.60;;;;;;6307457;22;20064;-84
2021/06/29 01:35:15;;;;;;;7.53;4.07;;;18.50;80.60;;;;;;6294844;22;20019;-83
2021/06/29 01:37:43;;;;;;;10.60;4.20;;;18.50;80.70;;;;;;6305850;22;20335;-82
2021/06/29 01:40:15;;;;;;;11.70;4.00;;;18.50;80.70;;;;;;6306254;22;20484;-83
2021/06/29 01:42:42;;;;;;;9.38;4.22;;;18.50;80.80;;;;;;6305575;22;20042;-83
2021/06/29 01:45:10;;;;;;;7.60;3.90;;;18.50;80.90;;;;;;6306235;22;20019;-83
2021/06/29 01:47:53;;;;;;;7.05;3.60;;;18.50;80.90;;;;;;6306196;22;20068;-83
2021/06/29 01:50:21;;;;;;;9.55;3.60;;;18.50;80.90;;;;;;6305718;22;20066;-83
2021/06/29 01:52:55;;;;;;;11.25;3.92;;;18.40;80.90;;;;;;6306169;22;20414;-84
2021/06/29 01:55:22;;;;;;;;;;;18.50;81.00;;;;;;6296065;22;20405;-83
2021/06/29 01:57:50;;;;;;;8.73;4.15;;;18.40;81.00;;;;;;6305891;22;19965;-83
2021/06/29 02:00:19;;;;;;;5.70;3.80;;;18.40;81.00;;;;;;6295176;22;20389;-83
2021/06/29 02:02:47;;;;;;;5.90;3.28;;;18.50;81.10;;;;;;6305944;22;20023;-83
2021/06/29 02:05:15;;;;;;;7.35;4.35;;;18.40;81.10;;;;;;6294284;22;20458;-84
2021/06/29 02:07:45;;;;;;;6.53;3.92;;;18.40;81.10;;;;;;6305649;22;20015;-83
2021/06/29 02:10:13;;;;;;;6.50;3.95;;;18.40;81.10;;;;;;6305672;22;20019;-83
2021/06/29 02:12:42;;;;;;;9.65;4.18;;;18.40;81.10;;;;;;6307204;22;20045;-84
2021/06/29 02:15:09;;;;;;;10.30;4.85;;;18.40;81.20;;;;;;6293285;22;20019;-84
2021/06/29 02:17:37;;;;;;;7.07;4.57;;;18.40;81.30;;;;;;6306924;22;20062;-83
2021/06/29 02:20:09;;;;;;;6.85;4.18;;;18.40;81.30;;;;;;6305080;22;20042;-83
2021/06/29 02:22:50;;;;;;;8.75;4.40;;;18.40;81.30;;;;;;6298909;22;20090;-84
2021/06/29 02:25:33;;;;;;;8.43;4.35;;;18.40;81.30;;;;;;6305648;22;20019;-83
2021/06/29 02:31:28;;;;;;;8.93;4.30;;;18.40;81.30;;;;;;6306747;22;20037;-83
2021/06/29 02:33:55;;;;;;;11.15;4.22;;;18.40;81.30;;;;;;6303978;22;20039;-84
2021/06/29 02:36:25;;;;;;;10.13;4.30;;;18.40;81.30;;;;;;6309374;22;20090;-83
2021/06/29 02:38:52;;;;;;;15.38;4.93;;;18.40;81.30;;;;;;6304264;22;20034;-83
2021/06/29 02:41:19;;;;;;;16.48;4.88;;;18.40;81.30;;;;;;6297235;22;20398;-83
2021/06/29 02:43:47;;;;;;;11.10;4.68;;;18.40;81.30;;;;;;6309392;22;20090;-83
2021/06/29 02:46:16;;;;;;;8.23;4.72;;;18.40;81.20;;;;;;6296845;22;20026;-84
2021/06/29 02:48:43;;;;;;;13.68;5.28;;;18.40;81.20;;;;;;6307784;22;20023;-83
2021/06/29 02:51:12;;;;;;;11.55;5.25;;;18.30;81.10;;;;;;6307674;22;20090;-83
2021/06/29 02:53:39;;;;;;;8.20;4.65;;;18.30;81.10;;;;;;6309163;22;20035;-84
2021/06/29 02:56:36;;;;;;;14.48;5.80;;;18.30;81.10;;;;;;6306809;22;20027;-84
2021/06/29 02:58:53;;;;;;;14.57;5.57;;;18.30;81.00;;;;;;6309167;22;20082;-84
2021/06/29 03:01:20;;;;;;;10.13;5.82;;;18.30;81.10;;;;;;6308617;22;20362;-83
2021/06/29 03:03:49;;;;;;;16.40;6.28;;;18.30;81.20;;;;;;6302908;22;20026;-84
2021/06/29 03:06:16;;;;;;;11.18;6.15;;;18.30;81.20;;;;;;6296186;22;20582;-84
2021/06/29 03:08:43;;;;;;;8.95;4.90;;;18.30;81.30;;;;;;6307042;22;20098;-84
2021/06/29 03:11:10;;;;;;;12.75;4.53;;;18.30;81.30;;;;;;6307213;22;20094;-83
2021/06/29 03:13:37;;;;;;;10.13;6.03;;;18.30;81.40;;;;;;6307278;22;20015;-83
2021/06/29 03:16:06;;;;;;;28.30;6.68;;;18.30;81.40;;;;;;6308652;22;20019;-83
2021/06/29 03:18:34;;;;;;;10.48;4.80;;;18.30;81.40;;;;;;6300169;22;20019;-84
2021/06/29 03:21:02;;;;;;;10.75;4.97;;;18.30;81.50;;;;;;6308976;22;20019;-83
2021/06/29 03:23:29;;;;;;;9.18;5.70;;;18.30;81.50;;;;;;6298877;22;20395;-84
2021/06/29 03:25:56;;;;;;;10.40;5.97;;;18.40;81.50;;;;;;6308536;22;20474;-83
2021/06/29 03:28:23;;;;;;;13.20;4.82;;;18.30;81.50;;;;;;6308947;22;20011;-83
2021/06/29 03:30:51;;;;;;;9.57;4.80;;;18.30;81.50;;;;;;6303279;22;20072;-82
2021/06/29 03:33:18;;;;;;;7.93;4.20;;;18.40;81.50;;;;;;6296273;22;20378;-83
2021/06/29 03:35:45;;;;;;;17.42;5.07;;;18.30;81.50;;;;;;6307470;22;20015;-83
2021/06/29 03:38:13;;;;;;;8.93;5.13;;;18.30;81.50;;;;;;6295368;22;20401;-83
2021/06/29 03:40:40;;;;;;;9.98;4.70;;;18.30;81.50;;;;;;6306978;22;20019;-83
2021/06/29 03:43:11;;;;;;;12.60;4.80;;;18.30;81.50;;;;;;6306973;22;20023;-83
2021/06/29 03:45:38;;;;;;;11.38;5.45;;;18.40;81.60;;;;;;6308906;22;20020;-84
2021/06/29 03:48:06;;;;;;;7.90;4.70;;;18.40;81.60;;;;;;6308395;22;20023;-84
2021/06/29 03:50:33;;;;;;;7.80;4.47;;;18.40;81.60;;;;;;6299832;22;20019;-84
2021/06/29 03:53:00;;;;;;;11.35;5.20;;;18.30;81.70;;;;;;6308655;22;20015;-84
2021/06/29 03:55:29;;;;;;;10.15;4.60;;;18.30;81.70;;;;;;6298086;22;20038;-84
2021/06/29 03:57:57;;;;;;;10.07;4.00;;;18.30;81.70;;;;;;6307139;22;20095;-83
2021/06/29 04:00:24;;;;;;;7.95;4.22;;;18.30;81.70;;;;;;6297363;22;20396;-83
2021/06/29 04:02:51;;;;;;;8.18;4.45;;;18.30;81.70;;;;;;6307254;22;20069;-83
2021/06/29 04:05:18;;;;;;;9.13;3.80;;;18.30;81.70;;;;;;6296457;22;20035;-84
2021/06/29 04:07:47;;;;;;;9.50;3.92;;;18.30;81.60;;;;;;6306406;22;20474;-83
2021/06/29 04:10:14;;;;;;;11.85;3.85;;;18.30;81.60;;;;;;6295100;22;20059;-84
2021/06/29 04:12:41;;;;;;;11.55;4.15;;;18.30;81.70;;;;;;6306575;22;20042;-83
2021/06/29 04:15:10;;;;;;;17.02;4.90;;;18.30;81.60;;;;;;6306599;22;20516;-83
2021/06/29 04:17:37;;;;;;;10.10;4.25;;;18.30;81.60;;;;;;6306776;22;20090;-84
2021/06/29 04:20:06;;;;;;;10.35;4.85;;;18.30;81.70;;;;;;6306768;22;20470;-85
2021/06/29 04:22:34;;;;;;;6.10;4.07;;;18.30;81.60;;;;;;6298888;22;20105;-83
2021/06/29 04:25:04;;;;;;;10.93;3.53;;;18.20;81.60;;;;;;6308349;22;20027;-84
2021/06/29 04:27:32;;;;;;;7.32;4.65;;;18.30;81.60;;;;;;6299403;22;20049;-83
2021/06/29 04:29:59;;;;;;;8.55;5.43;;;18.30;81.60;;;;;;6308377;22;20045;-83
2021/06/29 04:32:26;;;;;;;12.38;4.50;;;18.30;81.60;;;;;;6297513;22;20090;-82
2021/06/29 04:34:53;;;;;;;9.95;5.55;;;18.30;81.70;;;;;;6306783;22;20057;-83
2021/06/29 04:37:21;;;;;;;14.15;5.22;;;18.30;81.70;;;;;;6296766;22;20350;-82
2021/06/29 04:39:48;;;;;;;12.02;6.13;;;18.20;81.70;;;;;;6306534;22;20023;-82
2021/06/29 04:42:16;;;;;;;15.00;6.07;;;18.20;81.70;;;;;;6295202;22;20094;-82
2021/06/29 04:44:43;;;;;;;11.02;6.15;;;18.20;81.70;;;;;;6306909;22;20086;-83
2021/06/29 04:47:10;;;;;;;9.65;6.07;;;18.20;81.70;;;;;;6307817;22;20546;-83
2021/06/29 04:49:37;;;;;;;9.93;5.30;;;18.20;81.70;;;;;;6307591;22;20365;-83
2021/06/29 04:52:05;;;;;;;14.32;5.88;;;18.20;81.80;;;;;;6305166;22;20519;-84
2021/06/29 04:54:32;;;;;;;10.13;5.00;;;18.20;81.80;;;;;;6298873;22;20011;-84
2021/06/29 04:57:00;;;;;;;11.85;6.95;;;18.20;81.90;;;;;;6305922;22;20470;-83
2021/06/29 04:59:27;;;;;;;13.23;6.60;;;18.20;81.90;;;;;;6297416;22;20490;-83
2021/06/29 05:01:54;;;;;;;10.65;6.28;;;18.20;81.90;;;;;;6306301;22;20050;-83
2021/06/29 05:04:22;;;;;;;9.93;5.47;;;18.20;81.90;;;;;;6296217;22;20046;-83
2021/06/29 05:06:49;;;;;;;10.15;6.80;;;18.20;82.00;;;;;;6306108;22;20459;-82
2021/06/29 05:09:16;;;;;;;11.48;7.10;;;18.20;82.00;;;;;;6308014;22;20027;-83
2021/06/29 05:11:43;;;;;;;9.43;5.95;;;18.20;82.00;;;;;;6307453;22;20098;-83
2021/06/29 05:14:10;;;;;;;15.68;7.78;;;18.20;82.00;;;;;;6307447;22;20011;-82
2021/06/29 05:16:38;;;;;;;12.85;8.07;;;18.20;82.00;;;;;;6307422;22;20034;-82
2021/06/29 05:19:06;;;;;;;18.77;8.18;;;18.20;82.00;;;;;;6305844;22;20450;-83
2021/06/29 05:21:33;;;;;;;12.15;7.57;;;18.20;82.00;;;;;;6307806;22;20035;-84
2021/06/29 05:24:02;;;;;;;18.20;7.05;;;18.10;82.00;;;;;;6305102;22;20077;-82
2021/06/29 05:26:30;;;;;;;10.25;7.38;;;18.10;82.00;;;;;;6307834;22;20090;-82
2021/06/29 05:28:57;;;;;;;13.82;7.60;;;18.00;82.00;;;;;;6303355;22;20098;-83
2021/06/29 05:31:24;;;;;;;9.15;7.55;;;18.00;82.00;;;;;;6307172;22;20023;-83
2021/06/29 05:33:52;;;;;;;11.02;6.82;;;18.00;82.00;;;;;;6307107;22;20015;-83
2021/06/29 05:36:19;;;;;;;13.68;7.22;;;18.00;82.00;;;;;;6295748;22;20087;-82
2021/06/29 05:38:49;;;;;;;9.60;6.50;;;17.90;82.10;;;;;;6307080;22;20019;-84
2021/06/29 05:41:17;;;;;;;10.20;6.97;;;17.90;82.10;;;;;;6307577;22;20023;-84
2021/06/29 05:43:44;;;;;;;10.55;6.43;;;17.90;82.20;;;;;;6300672;22;20090;-84
2021/06/29 05:46:13;;;;;;;13.27;6.95;;;18.00;82.20;;;;;;6293290;22;20015;-82
2021/06/29 05:48:41;;;;;;;14.02;6.93;;;18.00;82.20;;;;;;6305390;22;20026;-81
2021/06/29 05:51:11;;;;;;;16.02;7.55;;;17.90;82.20;;;;;;6306327;22;20021;-84
2021/06/29 05:53:38;;;;;;;14.75;7.97;;;18.00;82.30;;;;;;6299263;22;20029;-84
2021/06/29 05:56:23;;;;;;;14.18;7.93;;;18.00;82.30;;;;;;6305303;22;20068;-84
2021/06/29 05:58:50;;;;;;;19.77;6.45;;;18.00;82.30;;;;;;6301673;22;20011;-84
2021/06/29 06:01:20;;;;;;;13.95;7.45;;;18.00;82.40;;;;;;6293432;22;20462;-85
2021/06/29 06:04:08;;;;;;;14.30;7.60;;;18.10;82.40;;;;;;6303124;22;20019;-85
2021/06/29 06:06:55;;;;;;;10.40;6.07;;;18.10;82.50;;;;;;6300411;22;20092;-86
2021/06/29 06:09:23;;;;;;;17.58;7.60;;;18.10;82.60;;;;;;6293984;22;20018;-83
2021/06/29 06:11:51;;;;;;;12.57;7.45;;;18.10;82.60;;;;;;6305442;22;20518;-84
2021/06/29 06:14:18;;;;;;;12.23;7.60;;;18.20;82.70;;;;;;6294235;22;20011;-86
2021/06/29 06:16:45;;;;;;;10.82;7.90;;;18.20;82.70;;;;;;6304014;22;20082;-82
2021/06/29 06:19:12;;;;;;;16.33;7.45;;;18.20;82.60;;;;;;6292324;22;20086;-83
2021/06/29 06:21:39;;;;;;;13.93;6.97;;;18.20;82.60;;;;;;6304493;22;20347;-82
2021/06/29 06:24:07;;;;;;;14.95;7.43;;;18.30;82.60;;;;;;6304276;22;20019;-84
2021/06/29 06:26:37;;;;;;;15.02;8.60;;;18.30;82.70;;;;;;6296885;22;20545;-83
2021/06/29 06:29:04;;;;;;;11.52;7.22;;;18.30;82.70;;;;;;6304548;22;20035;-86
2021/06/29 06:31:31;;;;;;;13.15;7.30;;;18.30;82.80;;;;;;6295849;22;20019;-84
2021/06/29 06:33:59;;;;;;;12.75;8.30;;;18.40;82.80;;;;;;6305285;22;20394;-83
2021/06/29 06:36:31;;;;;;;10.93;7.15;;;18.40;82.80;;;;;;6296383;22;20387;-83
2021/06/29 06:38:58;;;;;;;14.45;7.88;;;18.40;82.90;;;;;;6304471;22;20406;-86
2021/06/29 06:41:46;;;;;;;15.15;7.25;;;18.50;82.80;;;;;;6181091;23;20029;-83
2021/06/29 06:44:13;;;;;;;15.13;7.50;;;18.50;82.80;;;;;;6186060;23;20023;-84
2021/06/29 06:46:44;;;;;;;10.93;7.50;;;18.50;82.70;;;;;;6186270;23;20088;-83
2021/06/29 06:49:11;;;;;;;10.82;7.70;;;18.60;82.70;;;;;;6185961;23;20071;-85
2021/06/29 06:51:40;;;;;;;17.52;7.53;;;18.60;82.70;;;;;;6185900;23;20024;-84
2021/06/29 06:54:10;;;;;;;11.27;6.55;;;18.70;82.70;;;;;;6186317;23;20368;-86
2021/06/29 06:56:37;;;;;;;13.65;7.78;;;18.70;82.70;;;;;;6185748;23;20021;-83
2021/06/29 06:59:04;;;;;;;13.20;7.05;;;18.80;82.60;;;;;;6299657;22;20019;-83
2021/06/29 07:01:31;;;;;;;11.20;6.72;;;18.80;82.60;;;;;;6305369;22;20059;-85
2021/06/29 07:03:59;;;;;;;11.07;7.10;;;18.80;82.50;;;;;;6301547;22;20024;-83
2021/06/29 07:06:26;;;;;;;11.98;7.55;;;18.90;82.40;;;;;;6295479;22;20021;-82
2021/06/29 07:08:56;;;;;;;11.55;7.13;;;18.90;82.30;;;;;;6304432;22;20485;-85
2021/06/29 07:11:39;;;;;;;11.23;8.23;;;19.00;82.30;;;;;;6297434;22;20043;-83
2021/06/29 07:14:07;;;;;;;10.13;7.82;;;19.00;82.20;;;;;;6304074;22;20018;-82
2021/06/29 07:16:34;;;;;;;12.15;7.82;;;19.10;82.20;;;;;;6296751;22;20401;-83
2021/06/29 07:19:01;;;;;;;12.43;8.77;;;19.10;82.10;;;;;;6305603;22;20358;-82
2021/06/29 07:21:29;;;;;;;15.32;7.15;;;19.20;82.10;;;;;;6297230;22;20102;-84
2021/06/29 07:23:56;;;;;;;13.43;7.82;;;19.20;82.00;;;;;;6306184;22;20026;-82
2021/06/29 07:26:25;;;;;;;12.80;8.00;;;19.30;82.00;;;;;;6295837;22;20019;-83
2021/06/29 07:28:52;;;;;;;9.60;7.68;;;19.40;81.90;;;;;;6307259;22;20016;-82
2021/06/29 07:31:20;;;;;;;13.38;7.38;;;19.40;81.80;;;;;;6295693;22;20015;-82
2021/06/29 07:33:48;;;;;;;13.70;6.22;;;19.50;81.70;;;;;;6305774;22;20548;-84
2021/06/29 07:36:16;;;;;;;9.35;6.63;;;19.50;81.60;;;;;;6294733;22;20078;-83
2021/06/29 07:38:45;;;;;;;11.85;6.80;;;19.60;81.40;;;;;;6305876;22;20571;-86
2021/06/29 07:41:14;;;;;;;12.80;6.45;;;19.60;81.20;;;;;;6305481;22;20016;-84
2021/06/29 07:43:41;;;;;;;9.70;6.20;;;19.70;81.10;;;;;;6305894;22;20019;-83
2021/06/29 07:46:11;;;;;;;9.18;5.90;;;19.70;80.90;;;;;;6306773;22;20022;-84
2021/06/29 07:48:42;;;;;;;9.13;5.78;;;19.80;80.80;;;;;;6308170;22;20505;-84
2021/06/29 07:51:09;;;;;;;12.57;6.55;;;19.90;80.60;;;;;;6308752;22;20023;-83
2021/06/29 07:53:41;;;;;;;10.55;5.63;;;19.90;80.60;;;;;;6300348;22;20015;-82
2021/06/29 07:56:15;;;;;;;9.68;6.68;;;19.90;80.50;;;;;;6306358;22;20466;-84
2021/06/29 07:58:44;;;;;;;15.20;6.47;;;19.90;80.10;;;;;;6300837;22;20348;-85
2021/06/29 08:01:19;;;;;;;8.20;5.18;;;20.00;79.90;;;;;;6306881;22;20458;-84
2021/06/29 08:03:52;;;;;;;7.85;5.80;;;20.10;79.90;;;;;;6306775;22;20470;-85
2021/06/29 08:06:27;;;;;;;10.27;5.55;;;20.10;79.60;;;;;;6308719;22;20019;-84
2021/06/29 08:09:45;;;;;;;8.23;5.13;;;20.20;79.40;;;;;;6303575;22;20015;-85
2021/06/29 08:12:32;;;;;;;13.50;5.15;;;20.20;79.30;;;;;;6178620;23;20360;-86
2021/06/29 08:15:02;;;;;;;10.85;4.70;;;20.30;79.50;;;;;;6159052;23;20073;-85
2021/06/29 08:17:34;;;;;;;8.50;5.07;;;20.30;79.40;;;;;;6160092;23;20013;-84
2021/06/29 08:20:03;;;;;;;7.38;4.78;;;20.40;79.20;;;;;;6183705;23;20393;-84
2021/06/29 08:22:31;;;;;;;12.30;5.13;;;20.40;79.00;;;;;;6159101;23;20500;-83
2021/06/29 08:24:58;;;;;;;9.52;5.10;;;20.40;78.70;;;;;;6159058;23;20047;-86
2021/06/29 08:27:25;;;;;;;7.22;4.53;;;20.40;78.50;;;;;;6183098;23;20104;-83
2021/06/29 08:29:53;;;;;;;6.20;4.47;;;20.40;78.30;;;;;;6159037;23;20112;-84
2021/06/29 08:32:20;;;;;;;9.73;4.28;;;20.50;78.10;;;;;;6158626;23;20532;-87
2021/06/29 08:34:47;;;;;;;10.35;4.22;;;20.60;78.20;;;;;;6158828;23;20088;-84
2021/06/29 08:37:15;;;;;;;8.32;4.40;;;20.60;78.20;;;;;;6159028;23;20021;-86
2021/06/29 08:39:42;;;;;;;5.43;3.75;;;20.70;78.10;;;;;;6158867;23;20053;-84
2021/06/29 08:42:11;;;;;;;7.32;4.18;;;20.70;78.00;;;;;;6158530;23;20056;-81
2021/06/29 08:44:40;;;;;;;7.20;4.65;;;20.80;77.50;;;;;;6158785;23;20098;-85
2021/06/29 08:47:09;;;;;;;9.18;4.53;;;20.80;77.10;;;;;;6158939;23;20021;-84
2021/06/29 08:49:36;;;;;;;7.82;4.25;;;20.80;76.90;;;;;;6276400;22;20365;-82
2021/06/29 08:52:05;;;;;;;7.47;3.90;;;20.90;77.00;;;;;;6306827;22;20038;-82
2021/06/29 08:54:36;;;;;;;7.57;4.82;;;20.90;77.10;;;;;;6299107;22;20015;-83
2021/06/29 08:57:05;;;;;;;6.90;4.65;;;20.90;77.30;;;;;;6306335;22;20019;-85
2021/06/29 08:59:32;;;;;;;7.07;5.13;;;20.90;77.30;;;;;;6298380;22;20362;-84
2021/06/29 09:02:01;;;;;;;5.78;4.03;;;21.00;77.20;;;;;;6306498;22;20042;-80
2021/06/29 09:04:51;;;;;;;7.18;4.68;;;21.00;76.90;;;;;;6297821;22;20046;-85
2021/06/29 09:07:21;;;;;;;7.57;4.22;;;21.10;76.70;;;;;;6306375;22;20025;-82
2021/06/29 09:09:53;;;;;;;7.40;4.10;;;21.10;76.70;;;;;;6306411;22;20027;-86
2021/06/29 09:12:47;;;;;;;5.22;3.47;;;21.10;76.60;;;;;;6295521;22;20019;-83
2021/06/29 09:15:21;;;;;;;5.05;3.30;;;21.20;76.40;;;;;;6306232;22;20022;-84
2021/06/29 09:17:48;;;;;;;6.97;3.70;;;21.20;76.30;;;;;;6306454;22;20015;-81
2021/06/29 09:20:23;;;;;;;8.90;4.05;;;21.30;75.80;;;;;;6294959;22;20090;-83
2021/06/29 09:22:50;;;;;;;9.32;4.57;;;21.30;75.70;;;;;;6306377;22;20090;-82
2021/06/29 09:25:28;;;;;;;6.15;3.92;;;21.30;75.70;;;;;;6295048;22;20354;-85
2021/06/29 09:27:57;;;;;;;7.18;4.32;;;21.30;75.60;;;;;;6306157;22;20090;-85
2021/06/29 09:30:42;;;;;;;6.93;4.07;;;21.40;75.70;;;;;;6296649;22;20094;-84
2021/06/29 09:33:15;;;;;;;8.57;4.38;;;21.40;75.70;;;;;;6305817;22;20023;-88
2021/06/29 09:35:46;;;;;;;5.07;3.53;;;21.50;75.70;;;;;;6300457;22;20027;-82
2021/06/29 09:38:20;;;;;;;6.72;4.28;;;21.60;75.40;;;;;;6305990;22;20103;-87
2021/06/29 09:40:59;;;;;;;6.63;3.80;;;21.60;74.80;;;;;;6305952;22;20098;-84
2021/06/29 09:43:28;;;;;;;5.55;3.58;;;21.70;74.80;;;;;;6296598;22;20411;-85
2021/06/29 09:46:00;;;;;;;6.25;2.95;;;21.80;75.10;;;;;;6307194;22;20035;-87
2021/06/29 09:48:33;;;;;;;6.78;3.47;;;21.90;74.50;;;;;;6297105;22;20353;-82
2021/06/29 09:51:07;;;;;;;4.55;3.00;;;22.00;74.10;;;;;;6305760;22;20057;-83
2021/06/29 09:53:41;;;;;;;7.43;3.20;;;22.10;74.00;;;;;;6298579;22;20015;-85
2021/06/29 09:56:18;;;;;;;10.43;3.72;;;22.10;74.00;;;;;;6304357;22;20023;-83
2021/06/29 09:58:50;;;;;;;5.85;3.65;;;22.10;73.80;;;;;;6298739;22;20024;-81
2021/06/29 10:01:20;;;;;;;7.20;2.80;;;22.20;73.40;;;;;;6293331;22;20027;-81
2021/06/29 10:03:52;;;;;;;5.57;2.65;;;22.20;73.30;;;;;;6304841;22;20046;-82
2021/06/29 10:06:24;;;;;;;8.75;2.83;;;22.10;73.10;;;;;;6293961;22;20077;-85
2021/06/29 10:09:11;;;;;;;4.88;2.88;;;22.10;73.20;;;;;;6305986;22;20522;-83
2021/06/29 10:11:40;;;;;;;5.68;3.17;;;22.10;73.40;;;;;;6298045;22;20022;-82
2021/06/29 10:14:15;;;;;;;5.90;2.72;;;22.10;73.40;;;;;;6304033;22;20101;-84
2021/06/29 10:16:44;;;;;;;4.32;2.55;;;22.10;73.50;;;;;;6299292;22;20015;-82
2021/06/29 10:19:23;;;;;;;4.18;2.30;;;22.10;73.50;;;;;;6292102;22;20118;-84
2021/06/29 10:21:52;;;;;;;4.88;2.50;;;22.00;73.30;;;;;;6304338;22;20425;-82
2021/06/29 10:24:26;;;;;;;3.72;2.30;;;22.00;73.50;;;;;;6294269;22;20078;-83
2021/06/29 10:26:57;;;;;;;5.90;2.50;;;21.90;73.70;;;;;;6304800;22;20026;-87
2021/06/29 10:29:26;;;;;;;9.38;2.63;;;21.90;74.00;;;;;;6294380;22;20015;-80
2021/06/29 10:31:58;;;;;;;6.93;2.80;;;21.90;74.20;;;;;;6304664;22;20016;-81
2021/06/29 10:34:26;;;;;;;5.32;2.85;;;21.90;74.40;;;;;;6295377;22;20020;-84
2021/06/29 10:36:57;;;;;;;16.48;4.70;;;21.80;74.70;;;;;;6304276;22;20103;-83
2021/06/29 10:39:30;;;;;;;9.77;3.92;;;21.70;74.80;;;;;;6305721;22;20015;-84
2021/06/29 10:42:02;;;;;;;5.80;4.40;;;21.70;74.90;;;;;;6306384;22;20095;-84
2021/06/29 10:44:45;;;;;;;8.90;4.05;;;21.60;75.10;;;;;;6296097;22;20125;-83
2021/06/29 10:47:28;;;;;;;8.07;4.80;;;21.50;75.20;;;;;;6304546;22;20034;-83
2021/06/29 10:50:00;;;;;;;6.57;4.10;;;21.40;75.40;;;;;;6304646;22;20016;-83
2021/06/29 10:52:27;;;;;;;6.60;4.55;;;21.40;75.70;;;;;;6295505;22;20019;-83
2021/06/29 10:55:08;;;;;;;7.78;3.58;;;21.30;75.90;;;;;;6305766;22;20393;-83
2021/06/29 10:57:47;;;;;;;7.07;4.15;;;21.30;76.00;;;;;;6299090;22;20019;-82
2021/06/29 11:00:22;;;;;;;7.15;4.63;;;21.30;76.10;;;;;;6306539;22;20019;-82
2021/06/29 11:03:11;;;;;;;9.48;4.57;;;21.30;76.30;;;;;;6306875;22;20019;-83
2021/06/29 11:05:45;;;;;;;5.63;4.07;;;21.20;76.60;;;;;;6299015;22;20019;-81
2021/06/29 11:08:24;;;;;;;6.25;4.30;;;21.20;77.00;;;;;;6306045;22;20018;-83
2021/06/29 11:10:52;;;;;;;5.40;4.05;;;21.20;77.30;;;;;;6308021;22;20019;-82
2021/06/29 11:13:42;;;;;;;6.20;4.70;;;21.30;77.60;;;;;;6295073;22;20466;-83
2021/06/29 11:16:09;;;;;;;6.75;4.88;;;21.30;77.90;;;;;;6281866;22;20019;-84
2021/06/29 11:18:40;;;;;;;6.18;4.50;;;21.30;78.20;;;;;;6307568;22;20070;-82
2021/06/29 11:21:19;;;;;;;7.78;4.00;;;21.40;78.50;;;;;;6305061;22;20361;-83
2021/06/29 11:23:48;;;;;;;7.65;5.25;;;21.40;78.80;;;;;;6301185;22;20050;-84
2021/06/29 11:26:18;;;;;;;7.00;4.47;;;21.50;79.10;;;;;;6293966;22;20111;-82
2021/06/29 11:29:10;;;;;;;6.57;4.18;;;21.60;79.40;;;;;;6305887;22;20073;-82
2021/06/29 11:31:38;;;;;;;6.80;4.28;;;21.70;79.30;;;;;;6299595;22;20111;-83
2021/06/29 11:34:12;;;;;;;5.18;3.58;;;21.70;79.20;;;;;;6306121;22;20027;-85
2021/06/29 11:36:47;;;;;;;6.55;4.05;;;21.80;78.90;;;;;;6299335;22;20358;-87
2021/06/29 11:39:25;;;;;;;6.35;3.90;;;21.90;78.20;;;;;;6305816;22;20090;-83
2021/06/29 11:41:53;;;;;;;6.65;3.30;;;21.90;77.60;;;;;;6306374;22;20082;-84
2021/06/29 11:44:26;;;;;;;6.18;3.70;;;21.90;77.10;;;;;;6294971;22;20478;-85
2021/06/29 11:47:04;;;;;;;6.53;3.60;;;22.00;76.70;;;;;;6306104;22;20098;-83
2021/06/29 11:50:24;;;;;;;6.53;3.50;;;22.00;76.60;;;;;;6249774;22;20026;-85
2021/06/29 11:53:24;;;;;;;7.60;3.33;;;22.10;76.30;;;;;;6300761;22;20031;-85
2021/06/29 11:56:12;;;;;;;4.70;2.97;;;22.20;76.00;;;;;;6132085;23;20043;-84
2021/06/29 11:58:47;;;;;;;5.63;2.60;;;22.20;75.40;;;;;;6127687;23;20037;-82
2021/06/29 12:01:15;;;;;;;6.57;3.10;;;22.30;74.90;;;;;;6152641;23;20134;-84
2021/06/29 12:03:42;;;;;;;5.10;3.25;;;22.40;74.60;;;;;;6128449;23;20104;-83
2021/06/29 12:06:19;;;;;;;4.57;2.83;;;22.40;74.20;;;;;;6156266;23;20096;-82
2021/06/29 12:08:57;;;;;;;7.88;2.70;;;22.50;73.70;;;;;;6157631;23;20100;-85
2021/06/29 12:11:24;;;;;;;4.65;2.67;;;22.60;73.50;;;;;;6159700;22;20021;-83
2021/06/29 12:13:51;;;;;;;4.97;2.70;;;22.80;73.70;;;;;;6305004;22;20019;-80
2021/06/29 12:16:26;;;;;;;4.03;2.88;;;22.90;73.30;;;;;;6294825;22;20475;-80
2021/06/29 12:18:54;;;;;;;5.28;3.33;;;22.90;73.00;;;;;;6305348;22;20015;-81
2021/06/29 12:21:22;;;;;;;5.10;2.97;;;23.00;73.20;;;;;;6307240;22;20501;-81
2021/06/29 12:23:50;;;;;;;4.68;2.83;;;23.00;73.60;;;;;;6301141;22;20015;-80
2021/06/29 12:26:17;;;;;;;5.22;2.97;;;23.00;73.40;;;;;;6307230;22;20019;-82
2021/06/29 12:28:44;;;;;;;6.90;3.13;;;23.00;73.30;;;;;;6306903;22;20025;-81
2021/06/29 12:31:13;;;;;;;6.13;3.53;;;22.90;72.50;;;;;;6306875;22;20101;-82
2021/06/29 12:33:46;;;;;;;5.97;3.72;;;22.90;72.30;;;;;;6298854;22;20039;-83
2021/06/29 12:36:21;;;;;;;5.28;3.10;;;22.90;72.40;;;;;;6305630;22;20043;-83
2021/06/29 12:38:52;;;;;;;8.82;4.82;;;22.90;72.50;;;;;;6305315;22;20019;-80
2021/06/29 12:41:30;;;;;;;8.82;5.47;;;22.80;72.80;;;;;;6294699;22;20023;-82
2021/06/29 12:43:58;;;;;;;11.57;6.72;;;22.70;72.80;;;;;;6304897;22;20030;-82
2021/06/29 12:46:37;;;;;;;11.70;6.68;;;22.60;72.80;;;;;;6295841;22;20106;-81
2021/06/29 12:49:06;;;;;;;11.35;7.10;;;22.50;73.00;;;;;;6304865;22;20023;-79
2021/06/29 12:51:37;;;;;;;10.45;6.80;;;22.40;73.30;;;;;;6297752;22;20405;-81
2021/06/29 12:54:08;;;;;;;8.27;5.90;;;22.30;73.30;;;;;;6306596;22;20027;-80
2021/06/29 12:56:37;;;;;;;9.35;6.07;;;22.20;73.40;;;;;;6297467;22;20353;-79
2021/06/29 12:59:06;;;;;;;9.60;6.63;;;22.10;73.60;;;;;;6306643;22;20210;-80
2021/06/29 13:01:38;;;;;;;11.98;6.97;;;22.00;73.80;;;;;;6297242;22;20387;-80
2021/06/29 13:04:10;;;;;;;12.02;7.63;;;21.90;74.00;;;;;;6304789;22;20094;-79
2021/06/29 13:06:39;;;;;;;13.13;7.68;;;21.90;74.10;;;;;;6298607;22;20106;-83
2021/06/29 13:09:13;;;;;;;15.88;8.88;;;21.70;74.10;;;;;;6305544;22;20019;-82
2021/06/29 13:11:41;;;;;;;;;;;21.60;74.30;;;;;;6299443;22;20025;-80
2021/06/29 13:14:11;;;;;;;11.02;6.85;;;21.50;74.50;;;;;;6305357;22;19994;-82
2021/06/29 13:16:38;;;;;;;9.73;6.38;;;21.40;74.50;;;;;;6298161;22;20018;-82
2021/06/29 13:19:21;;;;;;;15.18;6.60;;;21.30;74.60;;;;;;6305601;22;20462;-81
2021/06/29 13:21:57;;;;;;;10.73;6.93;;;21.20;74.60;;;;;;6300868;22;20015;-80